Time;durP1;ratioP1;P1;durP2;ratioP2;P2;SDS_P1;SDS_P2;PMS_P1;PMS_P2;Temp;Humidity;BMP_temperature;BMP_pressure;BME280_temperature;BME280_humidity;BME280_pressure;Samples;Min_cycle;Max_cycle;Signal;HPM_P1;HPM_P2
2021/09/10 00:01:12;;;;;;;9.23;5.50;;;23.30;58.10;;;;;;6248679;28;20088;-77
2021/09/10 00:04:13;;;;;;;12.93;6.05;;;23.30;58.20;;;;;;6248166;28;20063;-76
2021/09/10 00:07:13;;;;;;;8.45;5.10;;;23.30;58.20;;;;;;6248938;28;20447;-76
2021/09/10 00:10:14;;;;;;;8.65;5.00;;;23.20;58.20;;;;;;6232243;28;20438;-76
2021/09/10 00:13:15;;;;;;;8.60;4.93;;;23.30;58.20;;;;;;6231932;28;20045;-76
2021/09/10 00:16:16;;;;;;;13.50;4.93;;;23.20;58.20;;;;;;6249223;28;20042;-76
2021/09/10 00:19:17;;;;;;;8.15;5.45;;;23.20;58.40;;;;;;6248560;28;20042;-76
2021/09/10 00:22:18;;;;;;;10.43;5.00;;;23.10;58.50;;;;;;6247962;28;20467;-76
2021/09/10 00:25:19;;;;;;;10.15;5.05;;;23.10;58.60;;;;;;6248072;28;20048;-75
2021/09/10 00:28:21;;;;;;;10.05;5.53;;;23.10;58.80;;;;;;6248360;28;20111;-76
2021/09/10 00:31:22;;;;;;;8.65;5.25;;;23.10;58.80;;;;;;6227089;28;20104;-75
2021/09/10 00:34:22;;;;;;;9.45;5.43;;;23.10;58.90;;;;;;6247808;28;20041;-76
2021/09/10 00:37:23;;;;;;;8.30;4.97;;;23.00;59.00;;;;;;6249614;28;20091;-75
2021/09/10 00:40:24;;;;;;;10.73;5.55;;;23.00;59.00;;;;;;6234036;28;20044;-75
2021/09/10 00:43:26;;;;;;;8.55;5.22;;;23.00;59.10;;;;;;6251617;28;20470;-76
2021/09/10 00:46:26;;;;;;;9.07;5.38;;;23.00;59.10;;;;;;6232970;28;20455;-76
2021/09/10 00:49:28;;;;;;;9.07;4.93;;;23.10;59.20;;;;;;6245672;28;20037;-76
2021/09/10 00:52:29;;;;;;;8.82;5.30;;;23.10;59.10;;;;;;6248446;28;20107;-77
2021/09/10 00:55:31;;;;;;;7.63;5.07;;;23.10;59.10;;;;;;6231700;28;20041;-77
2021/09/10 00:58:32;;;;;;;7.55;5.20;;;23.10;59.00;;;;;;6247781;28;20037;-76
2021/09/10 01:01:33;;;;;;;8.07;4.75;;;23.10;58.90;;;;;;6248290;28;20049;-76
2021/09/10 01:04:34;;;;;;;8.25;4.95;;;23.10;58.80;;;;;;6252862;28;20044;-76
2021/09/10 01:07:35;;;;;;;8.40;4.88;;;23.10;58.60;;;;;;6252685;28;20065;-76
2021/09/10 01:10:38;;;;;;;7.90;4.90;;;23.10;58.40;;;;;;6253460;28;20048;-77
2021/09/10 01:13:40;;;;;;;10.40;5.05;;;23.10;58.40;;;;;;6252667;28;20036;-76
2021/09/10 01:16:41;;;;;;;10.32;4.68;;;23.10;58.30;;;;;;6235354;28;20045;-76
2021/09/10 01:19:42;;;;;;;9.18;5.65;;;23.20;58.20;;;;;;6235378;28;20044;-77
2021/09/10 01:22:43;;;;;;;15.13;6.78;;;23.20;58.00;;;;;;6252086;28;20025;-77
2021/09/10 01:25:44;;;;;;;9.32;5.97;;;23.20;57.80;;;;;;6252609;28;20029;-77
2021/09/10 01:28:45;;;;;;;12.43;6.25;;;23.20;57.80;;;;;;6251985;28;20079;-76
2021/09/10 01:31:46;;;;;;;10.73;5.35;;;23.10;57.90;;;;;;6235111;28;20147;-77
2021/09/10 01:34:47;;;;;;;8.63;5.40;;;22.40;57.70;;;;;;6251662;28;20053;-77
2021/09/10 01:37:51;;;;;;;8.48;5.35;;;23.10;58.00;;;;;;6252241;28;20120;-77
2021/09/10 01:40:52;;;;;;;8.27;5.47;;;23.20;58.10;;;;;;6251913;28;20050;-77
2021/09/10 01:43:53;;;;;;;7.90;4.88;;;23.20;58.10;;;;;;6251758;28;20049;-77
2021/09/10 01:46:54;;;;;;;8.15;4.70;;;23.20;58.20;;;;;;6253158;28;20387;-77
2021/09/10 01:49:54;;;;;;;9.25;5.88;;;23.20;58.30;;;;;;6251646;28;20076;-77
2021/09/10 01:52:55;;;;;;;10.93;5.40;;;23.20;58.40;;;;;;6251537;28;20045;-77
2021/09/10 01:55:56;;;;;;;12.38;5.45;;;23.20;58.40;;;;;;6251916;28;20121;-77
2021/09/10 01:58:57;;;;;;;11.68;5.20;;;23.60;58.60;;;;;;6252811;28;20067;-77
2021/09/10 02:01:58;;;;;;;8.77;5.18;;;23.20;58.50;;;;;;6251051;28;20041;-76
2021/09/10 02:04:59;;;;;;;7.68;5.43;;;23.20;58.60;;;;;;6252167;28;20060;-77
2021/09/10 02:08:00;;;;;;;8.75;5.18;;;23.20;58.40;;;;;;6251329;28;20038;-76
2021/09/10 02:11:01;;;;;;;9.68;4.60;;;23.20;58.30;;;;;;6252510;28;20047;-77
2021/09/10 02:14:02;;;;;;;8.63;4.75;;;23.20;58.20;;;;;;6250052;28;20041;-78
2021/09/10 02:17:04;;;;;;;7.95;4.45;;;23.30;58.10;;;;;;6250845;28;20034;-77
2021/09/10 02:20:05;;;;;;;6.55;4.45;;;23.20;57.90;;;;;;6251936;28;20208;-77
2021/09/10 02:23:06;;;;;;;14.38;5.13;;;23.20;57.90;;;;;;6250939;28;20470;-77
2021/09/10 02:26:07;;;;;;;11.63;5.28;;;23.30;57.80;;;;;;6251559;28;20095;-77
2021/09/10 02:29:11;;;;;;;7.13;5.00;;;23.30;57.70;;;;;;6252634;28;20434;-77
2021/09/10 02:32:12;;;;;;;8.27;5.10;;;23.30;57.60;;;;;;6250306;28;20037;-77
2021/09/10 02:35:13;;;;;;;7.85;4.85;;;23.30;57.60;;;;;;6256458;28;20084;-77
2021/09/10 02:38:14;;;;;;;11.63;5.35;;;23.30;57.80;;;;;;6262167;28;20128;-77
2021/09/10 02:41:15;;;;;;;7.72;4.85;;;23.30;58.00;;;;;;6255037;28;20426;-77
2021/09/10 02:44:16;;;;;;;7.63;5.50;;;23.30;58.20;;;;;;6251830;28;20037;-77
2021/09/10 02:47:17;;;;;;;8.63;5.07;;;23.20;58.30;;;;;;6235086;28;20041;-77
2021/09/10 02:50:18;;;;;;;8.95;4.97;;;23.20;58.50;;;;;;6234078;28;20037;-77
2021/09/10 02:53:19;;;;;;;5.72;3.88;;;23.10;58.50;;;;;;6251096;28;20123;-77
2021/09/10 02:56:22;;;;;;;6.07;4.35;;;23.10;58.50;;;;;;6250500;28;20344;-77
2021/09/10 02:59:23;;;;;;;7.18;4.85;;;23.10;58.60;;;;;;6250272;28;20029;-77
2021/09/10 03:02:24;;;;;;;8.85;4.75;;;23.10;58.50;;;;;;6233059;28;20485;-78
2021/09/10 03:05:25;;;;;;;7.65;4.65;;;23.10;58.40;;;;;;6250177;28;20116;-77
2021/09/10 03:08:26;;;;;;;12.77;5.00;;;23.10;58.30;;;;;;6251250;28;20038;-75
2021/09/10 03:11:28;;;;;;;9.82;4.85;;;23.10;58.30;;;;;;6233008;28;20041;-75
2021/09/10 03:14:32;;;;;;;7.35;4.25;;;23.10;58.10;;;;;;6233261;28;20494;-76
2021/09/10 03:17:33;;;;;;;7.70;4.72;;;23.10;57.90;;;;;;6206311;28;20056;-75
2021/09/10 03:20:34;;;;;;;6.75;4.43;;;23.10;58.00;;;;;;6249300;28;20041;-75
2021/09/10 03:23:35;;;;;;;6.40;4.72;;;23.00;58.00;;;;;;6249221;28;20044;-76
2021/09/10 03:26:42;;;;;;;9.00;5.20;;;23.00;58.10;;;;;;6249978;28;20041;-77
2021/09/10 03:29:43;;;;;;;8.40;4.57;;;23.00;58.30;;;;;;6249691;28;20037;-77
2021/09/10 03:32:44;;;;;;;6.80;4.63;;;22.90;58.30;;;;;;6248811;28;20068;-77
2021/09/10 03:35:44;;;;;;;11.70;5.45;;;22.90;58.40;;;;;;6250419;28;20052;-77
2021/09/10 03:38:45;;;;;;;11.40;4.85;;;22.90;58.40;;;;;;6247691;28;20045;-77
2021/09/10 03:41:46;;;;;;;7.47;5.22;;;22.90;58.50;;;;;;6249282;28;20088;-77
2021/09/10 03:44:47;;;;;;;7.88;4.57;;;22.90;58.60;;;;;;6248449;28;20390;-77
2021/09/10 03:47:48;;;;;;;7.63;4.82;;;22.90;58.70;;;;;;6228037;28;20041;-77
2021/09/10 03:50:49;;;;;;;7.65;5.35;;;22.90;58.80;;;;;;6248630;28;20148;-77
2021/09/10 03:53:50;;;;;;;7.50;4.50;;;22.90;58.80;;;;;;6230526;28;20045;-77
2021/09/10 03:56:51;;;;;;;10.93;4.85;;;22.80;58.70;;;;;;6248823;28;20037;-77
2021/09/10 03:59:51;;;;;;;9.75;5.13;;;22.80;58.70;;;;;;6248741;28;20124;-77
2021/09/10 04:02:53;;;;;;;5.55;4.20;;;22.90;58.70;;;;;;6231927;28;20061;-76
2021/09/10 04:05:53;;;;;;;8.43;5.25;;;22.00;58.30;;;;;;6248480;28;20360;-76
2021/09/10 04:08:55;;;;;;;9.68;4.57;;;22.90;58.70;;;;;;6249426;28;20056;-76
2021/09/10 04:11:56;;;;;;;11.77;4.63;;;22.90;58.60;;;;;;6231980;28;20155;-76
2021/09/10 04:14:57;;;;;;;8.50;4.72;;;22.90;58.60;;;;;;6249013;28;20037;-77
2021/09/10 04:17:58;;;;;;;8.57;4.70;;;22.90;58.50;;;;;;6247308;28;20114;-76
2021/09/10 04:21:00;;;;;;;9.77;4.90;;;22.90;58.50;;;;;;6230935;28;20034;-76
2021/09/10 04:24:01;;;;;;;9.50;5.68;;;22.90;58.40;;;;;;6248735;28;20084;-78
2021/09/10 04:27:02;;;;;;;9.05;5.57;;;23.00;58.40;;;;;;6226955;28;20030;-75
2021/09/10 04:30:06;;;;;;;9.27;4.78;;;23.00;58.30;;;;;;6249222;28;20451;-76
2021/09/10 04:33:07;;;;;;;16.23;6.07;;;23.00;58.30;;;;;;6238778;28;20049;-77
2021/09/10 04:36:08;;;;;;;7.82;5.32;;;23.00;58.30;;;;;;6247610;28;20099;-77
2021/09/10 04:39:09;;;;;;;8.65;5.13;;;23.00;57.80;;;;;;6248010;28;20033;-78
2021/09/10 04:42:10;;;;;;;6.60;4.80;;;22.90;58.20;;;;;;6231363;28;20042;-78
2021/09/10 04:45:11;;;;;;;7.80;4.97;;;22.90;58.10;;;;;;6248297;28;20053;-77
2021/09/10 04:48:12;;;;;;;7.75;4.88;;;22.90;58.00;;;;;;6231601;28;20042;-78
2021/09/10 04:51:13;;;;;;;9.63;5.25;;;22.90;57.90;;;;;;6222716;28;20374;-77
2021/09/10 04:54:16;;;;;;;8.38;5.28;;;22.90;57.80;;;;;;6241513;28;20383;-77
2021/09/10 04:57:16;;;;;;;10.15;5.13;;;22.90;57.70;;;;;;6239635;28;20037;-76
2021/09/10 05:00:17;;;;;;;12.35;4.80;;;22.90;57.70;;;;;;6247514;28;20378;-77
2021/09/10 05:03:18;;;;;;;9.30;4.97;;;22.90;57.70;;;;;;6247846;28;20090;-77
2021/09/10 05:06:19;;;;;;;8.80;5.50;;;22.90;57.60;;;;;;6247512;28;20423;-77
2021/09/10 05:09:20;;;;;;;17.52;5.75;;;23.00;57.60;;;;;;6231095;28;20041;-78
2021/09/10 05:12:21;;;;;;;12.02;5.63;;;23.00;57.60;;;;;;6247153;28;20030;-78
2021/09/10 05:15:22;;;;;;;8.88;5.50;;;23.00;57.60;;;;;;6230967;28;20046;-76
2021/09/10 05:18:23;;;;;;;15.65;5.32;;;23.00;57.50;;;;;;6246823;28;20048;-76
2021/09/10 05:21:24;;;;;;;7.85;5.15;;;23.00;57.50;;;;;;6231025;28;20029;-76
2021/09/10 05:24:25;;;;;;;12.43;5.63;;;23.00;57.50;;;;;;6230516;28;20359;-76
2021/09/10 05:27:25;;;;;;;11.50;5.10;;;23.00;57.40;;;;;;6230427;28;20049;-76
2021/09/10 05:30:26;;;;;;;8.93;5.45;;;23.00;57.40;;;;;;6230862;28;20075;-76
2021/09/10 05:33:27;;;;;;;13.48;5.30;;;22.90;57.30;;;;;;6246789;28;20048;-76
2021/09/10 05:36:28;;;;;;;13.93;6.20;;;23.10;57.40;;;;;;6247303;28;20148;-77
2021/09/10 05:39:29;;;;;;;8.07;4.97;;;23.10;57.40;;;;;;6247374;28;20042;-78
2021/09/10 05:42:30;;;;;;;10.75;5.15;;;23.10;57.40;;;;;;6247220;28;20044;-77
2021/09/10 05:45:31;;;;;;;9.18;5.63;;;23.10;57.40;;;;;;6230733;28;20113;-79
2021/09/10 05:48:33;;;;;;;8.55;5.35;;;23.00;57.50;;;;;;6248312;28;20033;-78
2021/09/10 05:51:33;;;;;;;9.13;5.15;;;23.10;57.60;;;;;;6246185;28;20037;-77
2021/09/10 05:54:35;;;;;;;9.07;4.97;;;23.00;57.60;;;;;;6252298;28;20037;-75
2021/09/10 05:57:37;;;;;;;10.38;5.55;;;23.00;57.70;;;;;;6250990;28;20083;-76
2021/09/10 06:00:39;;;;;;;8.75;5.40;;;23.10;57.70;;;;;;6250744;28;20447;-76
2021/09/10 06:03:40;;;;;;;15.68;5.68;;;23.10;57.60;;;;;;6234266;28;20387;-75
2021/09/10 06:06:41;;;;;;;8.95;5.43;;;23.10;57.50;;;;;;6234789;28;20117;-77
2021/09/10 06:09:42;;;;;;;8.23;5.30;;;23.10;57.50;;;;;;6234797;28;20076;-77
2021/09/10 06:12:43;;;;;;;7.07;5.22;;;23.10;57.60;;;;;;6251361;28;20065;-77
2021/09/10 06:15:44;;;;;;;8.95;4.85;;;23.10;57.50;;;;;;6234646;28;20036;-77
2021/09/10 06:18:46;;;;;;;12.32;5.57;;;23.20;57.50;;;;;;6249765;28;20033;-76
2021/09/10 06:21:50;;;;;;;7.53;5.53;;;23.20;57.20;;;;;;6251551;28;20044;-78
2021/09/10 06:24:50;;;;;;;9.88;5.53;;;23.20;57.00;;;;;;6234033;28;20478;-76
2021/09/10 06:27:52;;;;;;;8.40;5.35;;;23.30;56.90;;;;;;6236077;28;20041;-76
2021/09/10 06:30:54;;;;;;;8.50;5.07;;;23.20;56.70;;;;;;6231001;28;20386;-77
2021/09/10 06:33:54;;;;;;;11.45;5.22;;;23.30;56.70;;;;;;6249131;28;20037;-77
2021/09/10 06:36:56;;;;;;;9.80;5.15;;;23.30;56.80;;;;;;6250447;28;20041;-77
2021/09/10 06:39:56;;;;;;;9.48;5.63;;;23.30;56.70;;;;;;6250098;28;20095;-77
2021/09/10 06:42:59;;;;;;;13.15;5.75;;;23.30;56.70;;;;;;6250414;28;20041;-76
2021/09/10 06:46:01;;;;;;;8.45;5.45;;;23.30;56.80;;;;;;6251028;28;20060;-77
2021/09/10 06:49:02;;;;;;;15.32;5.28;;;23.40;56.90;;;;;;6232565;28;20045;-77
2021/09/10 06:52:03;;;;;;;16.92;5.55;;;23.30;56.70;;;;;;6251093;28;20099;-77
2021/09/10 06:55:05;;;;;;;15.38;9.93;;;23.30;56.70;;;;;;6247815;28;20124;-77
2021/09/10 06:58:06;;;;;;;8.90;5.07;;;23.30;56.70;;;;;;6249303;28;20048;-76
2021/09/10 07:01:07;;;;;;;14.70;5.35;;;23.40;56.70;;;;;;6243690;28;20037;-77
2021/09/10 07:04:08;;;;;;;11.13;5.22;;;23.40;56.60;;;;;;6249076;28;20533;-77
2021/09/10 07:07:10;;;;;;;9.85;5.70;;;23.40;56.50;;;;;;6250467;28;20037;-77
2021/09/10 07:10:11;;;;;;;8.98;5.97;;;23.50;56.40;;;;;;6233095;28;20041;-77
2021/09/10 07:13:12;;;;;;;13.80;5.47;;;23.50;56.30;;;;;;6230383;28;20033;-77
2021/09/10 07:16:14;;;;;;;9.55;5.15;;;23.60;56.10;;;;;;6250025;28;20080;-77
2021/09/10 07:19:14;;;;;;;14.27;5.25;;;23.60;56.00;;;;;;6249229;28;20048;-79
2021/09/10 07:22:16;;;;;;;12.90;5.40;;;23.70;55.90;;;;;;6248408;28;20045;-77
2021/09/10 07:25:17;;;;;;;10.32;5.57;;;23.80;55.80;;;;;;6249919;28;20041;-77
2021/09/10 07:28:17;;;;;;;9.70;5.40;;;23.90;55.60;;;;;;6248748;28;20486;-77
2021/09/10 07:31:18;;;;;;;11.57;5.38;;;24.00;55.50;;;;;;6248917;28;20128;-78
2021/09/10 07:34:19;;;;;;;14.40;5.97;;;24.10;55.30;;;;;;6231009;28;20447;-76
2021/09/10 07:37:27;;;;;;;8.77;5.10;;;24.30;55.20;;;;;;6249581;28;20041;-78
2021/09/10 07:40:28;;;;;;;10.85;5.38;;;24.30;55.00;;;;;;6231571;28;20324;-77
2021/09/10 07:43:28;;;;;;;14.98;5.82;;;24.50;55.00;;;;;;6248314;28;20037;-77
2021/09/10 07:46:29;;;;;;;8.57;5.57;;;24.60;54.80;;;;;;6248252;28;20037;-77
2021/09/10 07:49:30;;;;;;;9.27;5.60;;;24.70;54.60;;;;;;6248597;28;20128;-77
2021/09/10 07:52:33;;;;;;;9.55;5.50;;;24.80;54.50;;;;;;6248072;28;20055;-78
2021/09/10 07:55:34;;;;;;;9.38;5.40;;;24.80;54.00;;;;;;6246825;28;20044;-78
2021/09/10 07:58:34;;;;;;;15.23;5.70;;;24.90;53.90;;;;;;6247808;28;20380;-78
2021/09/10 08:01:36;;;;;;;10.05;5.22;;;25.00;53.80;;;;;;6248052;28;20033;-76
2021/09/10 08:04:37;;;;;;;10.55;5.18;;;25.10;53.40;;;;;;6247179;28;20355;-78
2021/09/10 08:07:38;;;;;;;18.92;5.95;;;25.20;53.40;;;;;;6248968;28;20072;-77
2021/09/10 08:10:40;;;;;;;11.52;5.32;;;25.20;53.40;;;;;;6247396;28;20037;-78
2021/09/10 08:13:41;;;;;;;9.45;5.88;;;25.20;53.30;;;;;;6246892;28;20557;-77
2021/09/10 08:16:42;;;;;;;8.48;5.20;;;25.10;53.20;;;;;;6231474;28;20037;-77
2021/09/10 08:19:43;;;;;;;15.55;5.78;;;25.10;53.20;;;;;;6247029;28;20038;-75
2021/09/10 08:22:46;;;;;;;10.65;6.07;;;25.00;53.20;;;;;;6231341;28;20033;-76
2021/09/10 08:25:47;;;;;;;39.22;19.60;;;24.90;53.30;;;;;;6247529;28;20469;-78
2021/09/10 08:28:49;;;;;;;13.75;5.82;;;25.10;53.40;;;;;;6247282;28;20033;-77
2021/09/10 08:31:50;;;;;;;15.38;6.72;;;25.00;53.20;;;;;;6237311;28;20053;-78
2021/09/10 08:34:51;;;;;;;10.25;5.28;;;25.10;53.10;;;;;;6259378;28;20033;-77
2021/09/10 08:37:53;;;;;;;9.93;5.38;;;25.10;53.10;;;;;;6265806;28;20067;-77
2021/09/10 08:40:58;;;;;;;10.93;5.07;;;25.10;53.00;;;;;;6236715;28;20034;-77
2021/09/10 08:44:03;;;;;;;11.40;5.20;;;25.00;52.90;;;;;;6248715;28;20041;-77
2021/09/10 08:47:04;;;;;;;8.25;5.38;;;25.10;52.80;;;;;;6248562;28;20033;-77
2021/09/10 08:50:05;;;;;;;13.60;5.47;;;25.10;52.70;;;;;;6247273;28;20505;-77
2021/09/10 08:53:08;;;;;;;11.40;5.80;;;25.10;52.60;;;;;;6247154;28;20040;-77
2021/09/10 08:56:09;;;;;;;14.15;5.72;;;25.20;52.60;;;;;;6230378;28;20033;-78
2021/09/10 08:59:15;;;;;;;17.17;5.22;;;25.30;52.40;;;;;;6247378;28;20044;-77
2021/09/10 09:02:16;;;;;;;10.90;5.40;;;25.30;52.10;;;;;;6246921;28;20359;-76
2021/09/10 09:05:25;;;;;;;11.68;5.97;;;25.30;52.20;;;;;;6230109;28;20034;-77
2021/09/10 09:08:26;;;;;;;16.58;5.72;;;25.20;52.10;;;;;;6230561;28;20451;-77
2021/09/10 09:11:27;;;;;;;11.75;5.82;;;25.10;52.20;;;;;;6247870;28;20033;-77
2021/09/10 09:14:47;;;;;;;13.30;5.65;;;25.10;52.50;;;;;;6230235;28;20462;-77
2021/09/10 09:17:48;;;;;;;14.13;5.90;;;25.00;52.70;;;;;;6247491;28;20072;-78
2021/09/10 09:20:49;;;;;;;11.75;6.00;;;24.90;53.00;;;;;;6246400;28;20030;-76
2021/09/10 09:23:52;;;;;;;11.27;5.95;;;24.80;53.10;;;;;;6249620;28;20041;-79
2021/09/10 09:26:53;;;;;;;12.27;5.63;;;24.70;53.30;;;;;;6252558;28;20041;-78
2021/09/10 09:29:54;;;;;;;17.67;5.88;;;24.70;53.50;;;;;;6224824;28;20068;-78
2021/09/10 09:32:55;;;;;;;7.80;4.95;;;24.70;53.60;;;;;;6251141;28;20041;-77
2021/09/10 09:35:57;;;;;;;9.00;5.35;;;24.70;53.70;;;;;;6234786;28;20041;-77
2021/09/10 09:39:07;;;;;;;15.07;5.93;;;24.50;54.00;;;;;;6252566;28;20051;-77
2021/09/10 09:42:08;;;;;;;10.13;5.40;;;24.30;55.00;;;;;;6227545;28;20038;-77
2021/09/10 09:45:12;;;;;;;6.85;4.75;;;24.20;54.70;;;;;;6234638;28;20037;-77
2021/09/10 09:48:14;;;;;;;8.85;5.10;;;24.10;55.00;;;;;;6234435;28;20382;-78
2021/09/10 09:51:18;;;;;;;9.85;5.10;;;23.90;55.20;;;;;;6250964;28;20288;-77
2021/09/10 09:54:19;;;;;;;7.97;5.47;;;23.80;55.50;;;;;;6234557;28;20041;-78
2021/09/10 09:57:21;;;;;;;9.77;6.10;;;23.70;55.70;;;;;;6252002;28;20363;-77
2021/09/10 10:00:22;;;;;;;11.10;5.45;;;23.70;56.00;;;;;;6234823;28;20037;-77
2021/09/10 10:03:24;;;;;;;12.32;6.07;;;23.70;56.40;;;;;;6249496;28;20052;-76
2021/09/10 10:06:28;;;;;;;9.27;5.70;;;23.70;56.50;;;;;;6251388;28;20045;-76
2021/09/10 10:09:31;;;;;;;8.93;5.82;;;23.60;56.70;;;;;;6250636;28;20042;-77
2021/09/10 10:12:33;;;;;;;10.27;5.95;;;23.50;56.80;;;;;;6250534;28;20043;-77
2021/09/10 10:15:43;;;;;;;14.70;6.13;;;23.50;56.70;;;;;;6251417;28;20037;-77
2021/09/10 10:18:44;;;;;;;13.00;6.20;;;23.50;56.60;;;;;;6251467;28;20033;-78
2021/09/10 10:21:53;;;;;;;10.55;6.07;;;23.50;56.50;;;;;;6244139;28;20113;-76
2021/09/10 10:24:57;;;;;;;12.38;6.55;;;23.50;56.70;;;;;;6233518;28;20367;-78
2021/09/10 10:28:00;;;;;;;11.02;6.57;;;23.50;56.90;;;;;;6250923;28;20447;-76
2021/09/10 10:31:01;;;;;;;12.38;6.22;;;23.60;57.10;;;;;;6249753;28;20045;-78
2021/09/10 10:34:06;;;;;;;10.38;6.22;;;23.70;57.10;;;;;;6244714;28;20045;-78
2021/09/10 10:37:59;;;;;;;11.25;6.00;;;23.80;57.00;;;;;;6249094;28;20117;-78
2021/09/10 10:41:18;;;;;;;10.70;5.72;;;23.90;56.80;;;;;;6202518;28;20069;-77
2021/09/10 10:44:34;;;;;;;14.00;6.70;;;24.00;56.70;;;;;;6209301;28;20379;-78
2021/09/10 10:47:35;;;;;;;10.30;6.15;;;24.10;56.40;;;;;;6187149;28;20034;-77
2021/09/10 10:50:36;;;;;;;10.77;6.57;;;24.30;56.30;;;;;;6221592;28;20041;-77
2021/09/10 10:53:46;;;;;;;10.60;6.45;;;24.50;55.50;;;;;;6221432;28;20474;-77
2021/09/10 10:56:48;;;;;;;12.18;7.47;;;24.50;55.90;;;;;;6179322;28;20037;-77
2021/09/10 10:59:49;;;;;;;12.93;7.55;;;24.60;55.60;;;;;;6220999;28;20057;-76
2021/09/10 11:02:50;;;;;;;19.75;7.35;;;24.70;55.50;;;;;;6201934;28;20486;-78
2021/09/10 11:05:52;;;;;;;12.23;6.97;;;24.80;55.30;;;;;;6196111;28;20039;-79
2021/09/10 11:08:54;;;;;;;13.32;7.22;;;24.90;55.70;;;;;;6204666;28;20120;-77
2021/09/10 11:11:56;;;;;;;13.55;6.60;;;25.00;54.90;;;;;;6195811;28;20034;-78
2021/09/10 11:14:57;;;;;;;10.60;6.53;;;25.10;54.60;;;;;;6204755;28;20523;-78
2021/09/10 11:18:12;;;;;;;9.25;5.78;;;25.30;54.30;;;;;;6238314;28;20033;-77
2021/09/10 11:21:15;;;;;;;24.90;5.53;;;25.40;53.60;;;;;;6229626;28;20056;-77
2021/09/10 11:24:16;;;;;;;17.85;6.18;;;25.50;53.00;;;;;;6229539;28;20034;-78
2021/09/10 11:27:42;;;;;;;14.25;6.15;;;25.50;52.70;;;;;;6246282;28;20034;-77
2021/09/10 11:30:45;;;;;;;18.48;7.82;;;25.60;52.60;;;;;;6224191;28;20044;-76
2021/09/10 11:33:51;;;;;;;15.45;7.20;;;25.70;52.40;;;;;;6243991;28;20049;-76
2021/09/10 11:36:52;;;;;;;14.90;7.63;;;25.80;52.20;;;;;;6210753;28;20068;-79
2021/09/10 11:39:53;;;;;;;13.85;6.95;;;25.80;52.00;;;;;;6245922;28;20029;-78
2021/09/10 11:43:06;;;;;;;12.25;6.80;;;25.80;52.00;;;;;;6246513;28;20033;-77
2021/09/10 11:46:11;;;;;;;10.68;6.68;;;25.80;52.00;;;;;;6238064;28;20061;-77
2021/09/10 11:49:13;;;;;;;12.00;7.07;;;25.80;52.00;;;;;;6247514;28;20081;-78
2021/09/10 11:52:32;;;;;;;11.50;6.28;;;25.80;51.90;;;;;;6248198;28;20044;-78
2021/09/10 11:55:33;;;;;;;13.45;8.05;;;25.70;51.80;;;;;;6244291;28;20025;-78
2021/09/10 11:58:47;;;;;;;16.52;8.63;;;25.80;52.00;;;;;;6245397;28;20087;-78
2021/09/10 12:01:50;;;;;;;18.92;8.70;;;25.80;52.10;;;;;;6245287;28;20045;-76
2021/09/10 12:04:58;;;;;;;21.30;7.22;;;25.90;52.00;;;;;;6260691;28;20044;-77
2021/09/10 12:07:59;;;;;;;16.00;6.90;;;25.90;51.70;;;;;;6245136;28;20075;-77
2021/09/10 12:11:20;;;;;;;20.00;7.40;;;25.90;51.70;;;;;;6227681;28;20037;-77
2021/09/10 12:14:45;;;;;;;13.70;6.82;;;25.90;51.90;;;;;;6244590;28;20300;-76
2021/09/10 12:17:46;;;;;;;11.52;5.90;;;26.00;51.80;;;;;;6242667;28;20120;-77
2021/09/10 12:20:53;;;;;;;12.95;7.00;;;26.10;51.40;;;;;;6244787;28;20045;-77
2021/09/10 12:24:12;;;;;;;10.80;6.13;;;26.40;51.20;;;;;;6243984;28;20037;-78
2021/09/10 12:27:12;;;;;;;8.15;5.80;;;26.60;50.80;;;;;;6246521;28;20133;-78
2021/09/10 12:30:18;;;;;;;11.63;6.18;;;26.80;50.20;;;;;;6243185;28;20045;-77
2021/09/10 12:33:22;;;;;;;21.40;7.97;;;26.90;49.80;;;;;;6240212;28;20091;-77
2021/09/10 12:36:23;;;;;;;12.20;7.75;;;26.90;49.70;;;;;;6242418;28;20042;-76
2021/09/10 12:39:29;;;;;;;14.75;7.55;;;26.90;49.40;;;;;;6225089;28;20033;-77
2021/09/10 12:42:31;;;;;;;12.63;6.47;;;27.00;49.40;;;;;;6223945;28;20091;-77
2021/09/10 12:45:33;;;;;;;10.35;6.00;;;27.00;49.20;;;;;;6240716;28;20026;-76
2021/09/10 12:48:35;;;;;;;13.73;7.45;;;27.10;49.10;;;;;;6242035;28;20075;-76
2021/09/10 12:51:36;;;;;;;17.42;8.82;;;27.20;49.00;;;;;;6216901;28;20037;-78
2021/09/10 12:54:38;;;;;;;11.60;6.28;;;27.40;48.70;;;;;;6224467;28;20037;-77
2021/09/10 12:57:39;;;;;;;11.07;6.05;;;27.60;48.10;;;;;;6242095;28;20041;-78
2021/09/10 13:00:41;;;;;;;8.55;5.97;;;27.70;47.80;;;;;;6232838;28;20167;-80
2021/09/10 13:03:43;;;;;;;12.63;6.45;;;27.90;47.40;;;;;;6244219;28;20056;-77
2021/09/10 13:06:46;;;;;;;12.90;6.13;;;28.00;46.90;;;;;;6260658;28;20416;-77
2021/09/10 13:09:47;;;;;;;13.85;7.50;;;28.00;46.80;;;;;;6249882;28;20107;-78
2021/09/10 13:12:48;;;;;;;19.02;8.27;;;28.00;46.80;;;;;;6242927;28;20049;-78
2021/09/10 13:15:49;;;;;;;13.13;7.18;;;27.90;46.90;;;;;;6248601;28;20120;-78
2021/09/10 13:18:51;;;;;;;12.38;6.68;;;28.00;47.10;;;;;;6249975;28;20419;-76
2021/09/10 13:21:53;;;;;;;13.35;8.18;;;28.20;46.90;;;;;;6243430;28;20045;-78
2021/09/10 13:24:54;;;;;;;12.05;7.50;;;28.40;46.80;;;;;;6231047;28;20044;-77
2021/09/10 13:27:55;;;;;;;11.50;6.88;;;28.40;46.30;;;;;;6224298;28;20041;-77
2021/09/10 13:30:56;;;;;;;12.30;8.15;;;28.30;46.00;;;;;;6232883;28;20473;-77
2021/09/10 13:33:57;;;;;;;13.38;7.18;;;28.30;46.40;;;;;;6248525;28;20041;-79
2021/09/10 13:36:59;;;;;;;16.13;7.38;;;28.40;46.60;;;;;;6247215;28;20489;-78
2021/09/10 13:39:59;;;;;;;21.85;11.15;;;28.50;46.60;;;;;;6249501;28;20029;-76
2021/09/10 13:43:01;;;;;;;26.35;12.65;;;28.60;46.50;;;;;;6231525;28;20048;-78
2021/09/10 13:46:02;;;;;;;20.13;9.15;;;28.70;46.20;;;;;;6251324;28;20103;-78
2021/09/10 13:49:04;;;;;;;20.73;10.15;;;28.80;46.10;;;;;;6250751;28;20048;-78
2021/09/10 13:52:05;;;;;;;29.75;14.70;;;28.80;46.00;;;;;;6216922;28;20109;-77
2021/09/10 13:55:07;;;;;;;15.18;7.55;;;28.70;46.10;;;;;;6251947;28;20045;-77
2021/09/10 13:58:12;;;;;;;13.82;7.78;;;28.50;46.00;;;;;;6229529;28;20163;-77
2021/09/10 14:01:14;;;;;;;12.30;7.22;;;28.30;46.10;;;;;;6249713;28;20442;-77
2021/09/10 14:04:17;;;;;;;14.40;7.07;;;28.20;46.30;;;;;;6249920;28;20056;-77
2021/09/10 14:07:18;;;;;;;14.40;7.85;;;28.20;46.50;;;;;;6250287;28;20025;-78
2021/09/10 14:10:19;;;;;;;11.45;6.97;;;28.20;46.50;;;;;;6247943;28;20123;-78
2021/09/10 14:13:22;;;;;;;12.75;6.93;;;28.20;45.90;;;;;;6248915;28;20056;-77
2021/09/10 14:16:25;;;;;;;10.05;5.82;;;28.10;46.20;;;;;;6252928;28;20354;-78
2021/09/10 14:19:26;;;;;;;16.60;5.95;;;28.10;46.00;;;;;;6246945;28;20116;-77
2021/09/10 14:22:28;;;;;;;10.57;5.90;;;28.00;46.00;;;;;;6225960;28;20037;-77
2021/09/10 14:25:30;;;;;;;12.18;5.68;;;28.00;46.20;;;;;;6231448;28;20030;-78
2021/09/10 14:28:34;;;;;;;10.60;6.15;;;28.00;46.20;;;;;;6247185;28;20183;-78
2021/09/10 14:31:35;;;;;;;11.18;5.90;;;28.00;46.10;;;;;;6231357;28;20102;-77
2021/09/10 14:34:35;;;;;;;9.32;5.47;;;28.10;45.90;;;;;;6237701;28;20044;-77
2021/09/10 14:37:36;;;;;;;8.88;5.82;;;28.10;45.80;;;;;;6230795;28;20040;-77
2021/09/10 14:40:37;;;;;;;8.40;6.05;;;28.20;45.50;;;;;;6247937;28;20459;-77
2021/09/10 14:43:38;;;;;;;12.07;7.38;;;28.30;45.30;;;;;;6247588;28;20034;-77
2021/09/10 14:46:39;;;;;;;13.57;6.85;;;28.50;44.90;;;;;;6232532;28;20474;-77
2021/09/10 14:49:40;;;;;;;10.63;5.45;;;28.50;44.30;;;;;;6249552;28;20451;-79
2021/09/10 14:52:41;;;;;;;8.73;5.40;;;28.60;44.00;;;;;;6231518;28;20045;-78
2021/09/10 14:55:42;;;;;;;9.05;5.45;;;28.70;43.70;;;;;;6229890;28;20044;-77
2021/09/10 14:58:52;;;;;;;9.65;6.65;;;28.70;43.60;;;;;;6248121;28;20120;-76
2021/09/10 15:01:53;;;;;;;12.55;6.75;;;28.80;43.30;;;;;;6247590;28;20041;-78
2021/09/10 15:04:54;;;;;;;9.93;5.53;;;28.60;43.40;;;;;;6248368;28;20474;-78
2021/09/10 15:07:56;;;;;;;6.80;4.85;;;28.60;43.60;;;;;;6248367;28;20366;-78
2021/09/10 15:10:57;;;;;;;12.70;6.15;;;28.60;43.60;;;;;;6230361;28;20048;-77
2021/09/10 15:13:58;;;;;;;7.45;5.05;;;28.60;43.50;;;;;;6242861;28;20045;-77
2021/09/10 15:17:03;;;;;;;14.82;5.35;;;28.60;43.50;;;;;;6246326;28;20344;-77
2021/09/10 15:20:04;;;;;;;10.68;5.70;;;28.40;43.60;;;;;;6246401;28;20038;-77
2021/09/10 15:23:05;;;;;;;10.13;5.57;;;28.40;43.90;;;;;;6246310;28;20113;-77
2021/09/10 15:26:06;;;;;;;11.02;6.80;;;28.30;44.20;;;;;;6229017;28;20454;-79
2021/09/10 15:29:07;;;;;;;9.38;6.18;;;28.10;44.40;;;;;;6229925;28;20037;-78
2021/09/10 15:32:08;;;;;;;10.90;6.50;;;28.00;44.60;;;;;;6248618;28;20128;-76
2021/09/10 15:35:09;;;;;;;12.63;7.18;;;27.90;44.70;;;;;;6246376;28;20091;-77
2021/09/10 15:38:10;;;;;;;7.88;5.40;;;27.80;44.80;;;;;;6247301;28;20048;-76
2021/09/10 15:41:11;;;;;;;10.13;5.43;;;27.80;44.80;;;;;;6247478;28;20034;-77